sensor_id;sensor_type;location;lat;lon;timestamp;P1;durP1;ratioP1;P2;durP2;ratioP2
71164;SDS011;58859;55.132;-1.586;2023-06-10T00:01:56;3.47;;;2.93;;
71164;SDS011;58859;55.132;-1.586;2023-06-10T00:04:25;4.60;;;3.00;;
71164;SDS011;58859;55.132;-1.586;2023-06-10T00:06:51;4.50;;;2.87;;
71164;SDS011;58859;55.132;-1.586;2023-06-10T00:09:16;4.35;;;2.85;;
71164;SDS011;58859;55.132;-1.586;2023-06-10T00:11:43;9.50;;;3.33;;
71164;SDS011;58859;55.132;-1.586;2023-06-10T00:14:09;7.88;;;3.42;;
71164;SDS011;58859;55.132;-1.586;2023-06-10T00:16:35;4.07;;;3.30;;
71164;SDS011;58859;55.132;-1.586;2023-06-10T00:19:01;4.27;;;3.20;;
71164;SDS011;58859;55.132;-1.586;2023-06-10T00:21:28;7.45;;;3.75;;
71164;SDS011;58859;55.132;-1.586;2023-06-10T00:23:55;4.03;;;3.60;;
71164;SDS011;58859;55.132;-1.586;2023-06-10T00:26:23;6.93;;;3.20;;
71164;SDS011;58859;55.132;-1.586;2023-06-10T00:28:48;6.35;;;3.85;;
71164;SDS011;58859;55.132;-1.586;2023-06-10T00:31:14;6.65;;;3.15;;
71164;SDS011;58859;55.132;-1.586;2023-06-10T00:33:40;3.70;;;3.20;;
71164;SDS011;58859;55.132;-1.586;2023-06-10T00:36:05;5.57;;;3.00;;
71164;SDS011;58859;55.132;-1.586;2023-06-10T00:38:31;7.27;;;3.20;;
71164;SDS011;58859;55.132;-1.586;2023-06-10T00:40:56;3.45;;;3.05;;
71164;SDS011;58859;55.132;-1.586;2023-06-10T00:43:22;4.30;;;3.00;;
71164;SDS011;58859;55.132;-1.586;2023-06-10T00:45:47;5.43;;;3.33;;
71164;SDS011;58859;55.132;-1.586;2023-06-10T00:48:13;5.93;;;3.45;;
71164;SDS011;58859;55.132;-1.586;2023-06-10T00:50:39;4.80;;;3.47;;
71164;SDS011;58859;55.132;-1.586;2023-06-10T00:53:04;5.07;;;3.30;;
71164;SDS011;58859;55.132;-1.586;2023-06-10T00:55:31;6.38;;;3.78;;
71164;SDS011;58859;55.132;-1.586;2023-06-10T00:57:57;6.38;;;3.17;;
71164;SDS011;58859;55.132;-1.586;2023-06-10T01:00:23;7.25;;;3.20;;
71164;SDS011;58859;55.132;-1.586;2023-06-10T01:02:49;4.45;;;3.15;;
71164;SDS011;58859;55.132;-1.586;2023-06-10T01:05:17;6.55;;;3.97;;
71164;SDS011;58859;55.132;-1.586;2023-06-10T01:07:47;8.40;;;3.55;;
71164;SDS011;58859;55.132;-1.586;2023-06-10T01:13:00;5.10;;;3.33;;
71164;SDS011;58859;55.132;-1.586;2023-06-10T01:15:31;5.70;;;3.63;;
71164;SDS011;58859;55.132;-1.586;2023-06-10T01:18:00;6.63;;;3.33;;
71164;SDS011;58859;55.132;-1.586;2023-06-10T01:20:31;6.22;;;4.15;;
71164;SDS011;58859;55.132;-1.586;2023-06-10T01:22:57;4.38;;;3.45;;
71164;SDS011;58859;55.132;-1.586;2023-06-10T01:25:24;9.23;;;3.83;;
71164;SDS011;58859;55.132;-1.586;2023-06-10T01:30:48;5.82;;;3.90;;
71164;SDS011;58859;55.132;-1.586;2023-06-10T01:33:33;7.57;;;3.60;;
71164;SDS011;58859;55.132;-1.586;2023-06-10T01:36:02;8.63;;;4.72;;
71164;SDS011;58859;55.132;-1.586;2023-06-10T01:38:30;6.03;;;3.28;;
71164;SDS011;58859;55.132;-1.586;2023-06-10T01:40:58;9.93;;;3.65;;
71164;SDS011;58859;55.132;-1.586;2023-06-10T01:43:25;12.00;;;4.13;;
71164;SDS011;58859;55.132;-1.586;2023-06-10T01:45:51;8.57;;;3.80;;
71164;SDS011;58859;55.132;-1.586;2023-06-10T01:48:16;7.20;;;3.87;;
71164;SDS011;58859;55.132;-1.586;2023-06-10T01:50:42;4.00;;;3.57;;
71164;SDS011;58859;55.132;-1.586;2023-06-10T01:53:09;6.10;;;3.40;;
71164;SDS011;58859;55.132;-1.586;2023-06-10T01:55:34;5.97;;;3.08;;
71164;SDS011;58859;55.132;-1.586;2023-06-10T01:58:00;3.50;;;3.20;;
71164;SDS011;58859;55.132;-1.586;2023-06-10T02:00:25;7.90;;;3.60;;
71164;SDS011;58859;55.132;-1.586;2023-06-10T02:02:50;6.27;;;3.27;;
71164;SDS011;58859;55.132;-1.586;2023-06-10T02:05:16;4.53;;;3.33;;
71164;SDS011;58859;55.132;-1.586;2023-06-10T02:07:41;8.40;;;3.45;;
71164;SDS011;58859;55.132;-1.586;2023-06-10T02:10:07;7.53;;;3.60;;
71164;SDS011;58859;55.132;-1.586;2023-06-10T02:12:33;6.80;;;3.63;;
71164;SDS011;58859;55.132;-1.586;2023-06-10T02:14:58;9.05;;;3.33;;
71164;SDS011;58859;55.132;-1.586;2023-06-10T02:17:23;6.13;;;3.30;;
71164;SDS011;58859;55.132;-1.586;2023-06-10T02:19:49;3.37;;;3.07;;
71164;SDS011;58859;55.132;-1.586;2023-06-10T02:22:20;8.10;;;3.60;;
71164;SDS011;58859;55.132;-1.586;2023-06-10T02:24:46;6.97;;;3.63;;
71164;SDS011;58859;55.132;-1.586;2023-06-10T02:27:11;6.00;;;3.90;;
71164;SDS011;58859;55.132;-1.586;2023-06-10T02:29:37;6.87;;;3.30;;
71164;SDS011;58859;55.132;-1.586;2023-06-10T02:32:02;4.68;;;3.10;;
71164;SDS011;58859;55.132;-1.586;2023-06-10T02:34:28;4.28;;;3.60;;
71164;SDS011;58859;55.132;-1.586;2023-06-10T02:36:54;5.68;;;3.63;;
71164;SDS011;58859;55.132;-1.586;2023-06-10T02:39:19;4.05;;;3.63;;
71164;SDS011;58859;55.132;-1.586;2023-06-10T02:41:46;7.75;;;4.05;;
71164;SDS011;58859;55.132;-1.586;2023-06-10T02:44:12;4.93;;;3.65;;
71164;SDS011;58859;55.132;-1.586;2023-06-10T02:46:37;7.77;;;4.03;;
71164;SDS011;58859;55.132;-1.586;2023-06-10T02:49:02;5.67;;;3.73;;
71164;SDS011;58859;55.132;-1.586;2023-06-10T02:51:28;6.23;;;3.80;;
71164;SDS011;58859;55.132;-1.586;2023-06-10T02:53:53;6.87;;;3.80;;
71164;SDS011;58859;55.132;-1.586;2023-06-10T02:56:19;6.68;;;3.70;;
71164;SDS011;58859;55.132;-1.586;2023-06-10T02:58:45;4.93;;;3.70;;
71164;SDS011;58859;55.132;-1.586;2023-06-10T03:01:11;7.80;;;3.40;;
71164;SDS011;58859;55.132;-1.586;2023-06-10T03:03:37;5.55;;;3.53;;
71164;SDS011;58859;55.132;-1.586;2023-06-10T03:06:05;7.35;;;3.72;;
71164;SDS011;58859;55.132;-1.586;2023-06-10T03:08:31;6.03;;;3.70;;
71164;SDS011;58859;55.132;-1.586;2023-06-10T03:10:56;4.73;;;3.37;;
71164;SDS011;58859;55.132;-1.586;2023-06-10T03:13:22;6.43;;;3.90;;
71164;SDS011;58859;55.132;-1.586;2023-06-10T03:15:48;7.53;;;3.90;;
71164;SDS011;58859;55.132;-1.586;2023-06-10T03:18:14;7.00;;;3.80;;
71164;SDS011;58859;55.132;-1.586;2023-06-10T03:20:39;7.05;;;4.50;;
71164;SDS011;58859;55.132;-1.586;2023-06-10T03:23:05;6.77;;;3.67;;
71164;SDS011;58859;55.132;-1.586;2023-06-10T03:25:34;9.65;;;4.05;;
71164;SDS011;58859;55.132;-1.586;2023-06-10T03:27:59;4.77;;;3.70;;
71164;SDS011;58859;55.132;-1.586;2023-06-10T03:30:26;8.30;;;4.25;;
71164;SDS011;58859;55.132;-1.586;2023-06-10T03:32:52;7.18;;;3.88;;
71164;SDS011;58859;55.132;-1.586;2023-06-10T03:35:17;5.33;;;4.13;;
71164;SDS011;58859;55.132;-1.586;2023-06-10T03:37:43;4.72;;;4.22;;
71164;SDS011;58859;55.132;-1.586;2023-06-10T03:40:08;5.03;;;3.87;;
71164;SDS011;58859;55.132;-1.586;2023-06-10T03:42:35;6.72;;;3.78;;
71164;SDS011;58859;55.132;-1.586;2023-06-10T03:45:00;5.80;;;3.93;;
71164;SDS011;58859;55.132;-1.586;2023-06-10T03:47:29;8.32;;;3.97;;
71164;SDS011;58859;55.132;-1.586;2023-06-10T03:50:05;5.45;;;3.75;;
71164;SDS011;58859;55.132;-1.586;2023-06-10T03:52:33;6.43;;;3.78;;
71164;SDS011;58859;55.132;-1.586;2023-06-10T03:54:59;8.27;;;3.95;;
71164;SDS011;58859;55.132;-1.586;2023-06-10T03:57:24;6.23;;;3.80;;
71164;SDS011;58859;55.132;-1.586;2023-06-10T03:59:50;6.40;;;3.30;;
71164;SDS011;58859;55.132;-1.586;2023-06-10T04:02:16;6.13;;;3.67;;
71164;SDS011;58859;55.132;-1.586;2023-06-10T04:04:41;7.63;;;3.87;;
71164;SDS011;58859;55.132;-1.586;2023-06-10T04:07:07;5.45;;;3.22;;
71164;SDS011;58859;55.132;-1.586;2023-06-10T04:09:33;9.27;;;3.50;;
71164;SDS011;58859;55.132;-1.586;2023-06-10T04:12:00;5.67;;;3.50;;
71164;SDS011;58859;55.132;-1.586;2023-06-10T04:14:26;6.28;;;3.58;;
71164;SDS011;58859;55.132;-1.586;2023-06-10T04:16:52;8.47;;;3.97;;
71164;SDS011;58859;55.132;-1.586;2023-06-10T04:19:17;7.18;;;3.97;;
71164;SDS011;58859;55.132;-1.586;2023-06-10T04:21:42;4.63;;;3.20;;
71164;SDS011;58859;55.132;-1.586;2023-06-10T04:24:08;6.17;;;3.83;;
71164;SDS011;58859;55.132;-1.586;2023-06-10T04:26:35;8.83;;;3.23;;
71164;SDS011;58859;55.132;-1.586;2023-06-10T04:29:00;4.32;;;3.28;;
71164;SDS011;58859;55.132;-1.586;2023-06-10T04:31:26;5.47;;;3.00;;
71164;SDS011;58859;55.132;-1.586;2023-06-10T04:33:51;4.60;;;3.03;;
71164;SDS011;58859;55.132;-1.586;2023-06-10T04:36:16;10.60;;;3.53;;
71164;SDS011;58859;55.132;-1.586;2023-06-10T04:38:42;6.60;;;3.40;;
71164;SDS011;58859;55.132;-1.586;2023-06-10T04:41:08;6.82;;;3.20;;
71164;SDS011;58859;55.132;-1.586;2023-06-10T04:43:33;6.33;;;3.30;;
71164;SDS011;58859;55.132;-1.586;2023-06-10T04:45:58;4.03;;;3.33;;
71164;SDS011;58859;55.132;-1.586;2023-06-10T04:48:24;8.38;;;3.63;;
71164;SDS011;58859;55.132;-1.586;2023-06-10T04:50:50;7.37;;;3.17;;
71164;SDS011;58859;55.132;-1.586;2023-06-10T04:53:15;6.97;;;3.23;;
71164;SDS011;58859;55.132;-1.586;2023-06-10T04:55:41;10.15;;;3.30;;
71164;SDS011;58859;55.132;-1.586;2023-06-10T04:58:07;4.38;;;3.28;;
71164;SDS011;58859;55.132;-1.586;2023-06-10T05:00:32;5.53;;;3.73;;
71164;SDS011;58859;55.132;-1.586;2023-06-10T05:02:58;6.90;;;3.13;;
71164;SDS011;58859;55.132;-1.586;2023-06-10T05:05:23;6.67;;;3.43;;
71164;SDS011;58859;55.132;-1.586;2023-06-10T05:07:48;3.40;;;3.10;;
71164;SDS011;58859;55.132;-1.586;2023-06-10T05:10:14;7.55;;;2.67;;
71164;SDS011;58859;55.132;-1.586;2023-06-10T05:12:39;6.37;;;2.50;;
71164;SDS011;58859;55.132;-1.586;2023-06-10T05:15:06;5.55;;;2.97;;
71164;SDS011;58859;55.132;-1.586;2023-06-10T05:17:32;3.95;;;2.67;;
71164;SDS011;58859;55.132;-1.586;2023-06-10T05:19:57;5.03;;;2.70;;
71164;SDS011;58859;55.132;-1.586;2023-06-10T05:22:22;4.20;;;2.92;;
71164;SDS011;58859;55.132;-1.586;2023-06-10T05:24:49;7.78;;;3.20;;
71164;SDS011;58859;55.132;-1.586;2023-06-10T05:27:16;8.48;;;2.70;;
71164;SDS011;58859;55.132;-1.586;2023-06-10T05:29:41;6.50;;;3.22;;
71164;SDS011;58859;55.132;-1.586;2023-06-10T05:32:07;5.03;;;2.80;;
71164;SDS011;58859;55.132;-1.586;2023-06-10T05:34:33;7.47;;;2.80;;
71164;SDS011;58859;55.132;-1.586;2023-06-10T05:36:58;6.03;;;2.33;;
71164;SDS011;58859;55.132;-1.586;2023-06-10T05:39:24;6.40;;;2.80;;
71164;SDS011;58859;55.132;-1.586;2023-06-10T05:41:49;4.47;;;2.40;;
71164;SDS011;58859;55.132;-1.586;2023-06-10T05:44:14;4.30;;;2.90;;
71164;SDS011;58859;55.132;-1.586;2023-06-10T05:46:40;7.03;;;2.80;;
71164;SDS011;58859;55.132;-1.586;2023-06-10T05:49:05;5.23;;;3.07;;
71164;SDS011;58859;55.132;-1.586;2023-06-10T05:51:31;5.93;;;2.80;;
71164;SDS011;58859;55.132;-1.586;2023-06-10T05:53:56;6.47;;;3.20;;
71164;SDS011;58859;55.132;-1.586;2023-06-10T05:56:22;5.90;;;2.70;;
71164;SDS011;58859;55.132;-1.586;2023-06-10T05:58:47;8.07;;;3.10;;
71164;SDS011;58859;55.132;-1.586;2023-06-10T06:01:13;7.45;;;2.65;;
71164;SDS011;58859;55.132;-1.586;2023-06-10T06:03:39;5.43;;;2.90;;
71164;SDS011;58859;55.132;-1.586;2023-06-10T06:06:04;4.93;;;2.80;;
71164;SDS011;58859;55.132;-1.586;2023-06-10T06:08:30;3.78;;;2.92;;
71164;SDS011;58859;55.132;-1.586;2023-06-10T06:10:56;5.60;;;3.30;;
71164;SDS011;58859;55.132;-1.586;2023-06-10T06:13:21;8.13;;;3.20;;
71164;SDS011;58859;55.132;-1.586;2023-06-10T06:15:47;4.50;;;3.20;;
71164;SDS011;58859;55.132;-1.586;2023-06-10T06:18:12;5.67;;;2.87;;
71164;SDS011;58859;55.132;-1.586;2023-06-10T06:20:37;5.87;;;2.70;;
71164;SDS011;58859;55.132;-1.586;2023-06-10T06:23:03;7.10;;;2.83;;
71164;SDS011;58859;55.132;-1.586;2023-06-10T06:25:28;6.88;;;3.00;;
71164;SDS011;58859;55.132;-1.586;2023-06-10T06:27:54;10.37;;;3.07;;
71164;SDS011;58859;55.132;-1.586;2023-06-10T06:30:19;5.53;;;2.80;;
71164;SDS011;58859;55.132;-1.586;2023-06-10T06:32:45;9.35;;;4.47;;
71164;SDS011;58859;55.132;-1.586;2023-06-10T06:35:10;5.03;;;3.22;;
71164;SDS011;58859;55.132;-1.586;2023-06-10T06:37:36;4.97;;;3.50;;
71164;SDS011;58859;55.132;-1.586;2023-06-10T06:40:01;5.80;;;3.00;;
71164;SDS011;58859;55.132;-1.586;2023-06-10T06:42:28;8.32;;;3.42;;
71164;SDS011;58859;55.132;-1.586;2023-06-10T06:44:53;8.93;;;3.37;;
71164;SDS011;58859;55.132;-1.586;2023-06-10T06:47:19;6.38;;;2.97;;
71164;SDS011;58859;55.132;-1.586;2023-06-10T06:49:47;4.73;;;2.97;;
71164;SDS011;58859;55.132;-1.586;2023-06-10T06:52:14;6.15;;;3.05;;
71164;SDS011;58859;55.132;-1.586;2023-06-10T06:54:40;5.82;;;3.00;;
71164;SDS011;58859;55.132;-1.586;2023-06-10T06:57:05;6.30;;;3.28;;
71164;SDS011;58859;55.132;-1.586;2023-06-10T06:59:32;4.28;;;3.05;;
71164;SDS011;58859;55.132;-1.586;2023-06-10T07:01:57;5.40;;;3.67;;
71164;SDS011;58859;55.132;-1.586;2023-06-10T07:04:23;7.90;;;2.93;;
71164;SDS011;58859;55.132;-1.586;2023-06-10T07:06:48;7.13;;;3.33;;
71164;SDS011;58859;55.132;-1.586;2023-06-10T07:09:14;7.53;;;3.00;;
71164;SDS011;58859;55.132;-1.586;2023-06-10T07:11:39;7.17;;;2.30;;
71164;SDS011;58859;55.132;-1.586;2023-06-10T07:14:05;4.50;;;2.47;;
71164;SDS011;58859;55.132;-1.586;2023-06-10T07:16:31;5.50;;;2.60;;
71164;SDS011;58859;55.132;-1.586;2023-06-10T07:18:57;6.75;;;2.70;;
71164;SDS011;58859;55.132;-1.586;2023-06-10T07:21:22;6.97;;;3.27;;
71164;SDS011;58859;55.132;-1.586;2023-06-10T07:23:48;4.67;;;2.40;;
71164;SDS011;58859;55.132;-1.586;2023-06-10T07:26:14;5.70;;;2.60;;
71164;SDS011;58859;55.132;-1.586;2023-06-10T07:28:40;6.00;;;2.80;;
71164;SDS011;58859;55.132;-1.586;2023-06-10T07:31:06;6.63;;;2.60;;
71164;SDS011;58859;55.132;-1.586;2023-06-10T07:33:32;8.75;;;2.78;;
71164;SDS011;58859;55.132;-1.586;2023-06-10T07:35:58;4.00;;;2.47;;
71164;SDS011;58859;55.132;-1.586;2023-06-10T07:38:24;5.55;;;2.83;;
71164;SDS011;58859;55.132;-1.586;2023-06-10T07:40:50;6.07;;;2.30;;
71164;SDS011;58859;55.132;-1.586;2023-06-10T07:43:15;7.72;;;3.05;;
71164;SDS011;58859;55.132;-1.586;2023-06-10T07:45:40;6.10;;;2.92;;
71164;SDS011;58859;55.132;-1.586;2023-06-10T07:48:06;5.27;;;2.00;;
71164;SDS011;58859;55.132;-1.586;2023-06-10T07:50:32;7.72;;;2.63;;
71164;SDS011;58859;55.132;-1.586;2023-06-10T07:52:58;6.73;;;3.10;;
71164;SDS011;58859;55.132;-1.586;2023-06-10T07:55:23;6.60;;;2.80;;
71164;SDS011;58859;55.132;-1.586;2023-06-10T07:57:50;5.35;;;2.50;;
71164;SDS011;58859;55.132;-1.586;2023-06-10T08:00:16;4.10;;;2.10;;
71164;SDS011;58859;55.132;-1.586;2023-06-10T08:02:42;5.45;;;2.50;;
71164;SDS011;58859;55.132;-1.586;2023-06-10T08:05:07;5.63;;;2.40;;
71164;SDS011;58859;55.132;-1.586;2023-06-10T08:07:33;8.37;;;2.77;;
71164;SDS011;58859;55.132;-1.586;2023-06-10T08:09:58;4.32;;;2.08;;
71164;SDS011;58859;55.132;-1.586;2023-06-10T08:12:23;6.70;;;2.20;;
71164;SDS011;58859;55.132;-1.586;2023-06-10T08:14:49;7.03;;;2.40;;
71164;SDS011;58859;55.132;-1.586;2023-06-10T08:17:15;5.03;;;1.90;;
71164;SDS011;58859;55.132;-1.586;2023-06-10T08:19:40;7.67;;;2.47;;
71164;SDS011;58859;55.132;-1.586;2023-06-10T08:22:06;8.63;;;2.43;;
71164;SDS011;58859;55.132;-1.586;2023-06-10T08:24:32;9.00;;;2.70;;
71164;SDS011;58859;55.132;-1.586;2023-06-10T08:26:57;4.18;;;2.00;;
71164;SDS011;58859;55.132;-1.586;2023-06-10T08:29:23;5.33;;;2.40;;
71164;SDS011;58859;55.132;-1.586;2023-06-10T08:31:48;6.55;;;2.60;;
71164;SDS011;58859;55.132;-1.586;2023-06-10T08:34:14;6.10;;;2.77;;
71164;SDS011;58859;55.132;-1.586;2023-06-10T08:36:39;7.55;;;2.45;;
71164;SDS011;58859;55.132;-1.586;2023-06-10T08:39:05;5.88;;;2.17;;
71164;SDS011;58859;55.132;-1.586;2023-06-10T08:41:32;8.27;;;2.30;;
71164;SDS011;58859;55.132;-1.586;2023-06-10T08:44:08;7.50;;;2.05;;
71164;SDS011;58859;55.132;-1.586;2023-06-10T08:46:37;5.63;;;1.98;;
71164;SDS011;58859;55.132;-1.586;2023-06-10T08:49:07;9.10;;;2.20;;
71164;SDS011;58859;55.132;-1.586;2023-06-10T08:51:33;6.13;;;2.33;;
71164;SDS011;58859;55.132;-1.586;2023-06-10T08:54:01;6.32;;;2.13;;
71164;SDS011;58859;55.132;-1.586;2023-06-10T08:56:30;5.60;;;2.03;;
71164;SDS011;58859;55.132;-1.586;2023-06-10T08:59:01;6.85;;;2.20;;
71164;SDS011;58859;55.132;-1.586;2023-06-10T09:01:27;6.70;;;2.33;;
71164;SDS011;58859;55.132;-1.586;2023-06-10T09:03:53;6.03;;;2.20;;
71164;SDS011;58859;55.132;-1.586;2023-06-10T09:06:19;5.75;;;2.25;;
71164;SDS011;58859;55.132;-1.586;2023-06-10T09:08:45;6.53;;;2.33;;
71164;SDS011;58859;55.132;-1.586;2023-06-10T09:11:11;5.57;;;2.40;;
71164;SDS011;58859;55.132;-1.586;2023-06-10T09:13:37;6.10;;;2.28;;
71164;SDS011;58859;55.132;-1.586;2023-06-10T09:16:02;7.82;;;2.55;;
71164;SDS011;58859;55.132;-1.586;2023-06-10T09:18:28;6.50;;;2.30;;
71164;SDS011;58859;55.132;-1.586;2023-06-10T09:20:53;8.15;;;2.83;;
71164;SDS011;58859;55.132;-1.586;2023-06-10T09:23:19;6.43;;;2.03;;
71164;SDS011;58859;55.132;-1.586;2023-06-10T09:25:44;8.10;;;2.63;;
71164;SDS011;58859;55.132;-1.586;2023-06-10T09:28:13;8.87;;;2.53;;
71164;SDS011;58859;55.132;-1.586;2023-06-10T09:30:40;8.38;;;2.65;;
71164;SDS011;58859;55.132;-1.586;2023-06-10T09:33:09;8.88;;;2.30;;
71164;SDS011;58859;55.132;-1.586;2023-06-10T09:35:37;7.82;;;2.80;;
71164;SDS011;58859;55.132;-1.586;2023-06-10T09:38:11;10.18;;;3.20;;
71164;SDS011;58859;55.132;-1.586;2023-06-10T09:40:54;7.10;;;2.97;;
71164;SDS011;58859;55.132;-1.586;2023-06-10T09:43:20;8.90;;;2.60;;
71164;SDS011;58859;55.132;-1.586;2023-06-10T09:45:51;10.63;;;3.40;;
71164;SDS011;58859;55.132;-1.586;2023-06-10T09:48:21;6.97;;;2.33;;
71164;SDS011;58859;55.132;-1.586;2023-06-10T09:50:48;8.23;;;2.60;;
71164;SDS011;58859;55.132;-1.586;2023-06-10T09:53:13;7.30;;;3.05;;
71164;SDS011;58859;55.132;-1.586;2023-06-10T09:55:39;9.80;;;2.43;;
71164;SDS011;58859;55.132;-1.586;2023-06-10T09:58:05;8.00;;;2.88;;
71164;SDS011;58859;55.132;-1.586;2023-06-10T10:00:33;6.57;;;2.17;;
71164;SDS011;58859;55.132;-1.586;2023-06-10T10:02:59;6.95;;;2.70;;
71164;SDS011;58859;55.132;-1.586;2023-06-10T10:05:26;8.03;;;2.10;;
71164;SDS011;58859;55.132;-1.586;2023-06-10T10:07:52;5.45;;;2.05;;
71164;SDS011;58859;55.132;-1.586;2023-06-10T10:10:19;3.47;;;2.00;;
71164;SDS011;58859;55.132;-1.586;2023-06-10T10:12:46;6.33;;;2.30;;
71164;SDS011;58859;55.132;-1.586;2023-06-10T10:15:13;4.72;;;2.00;;
71164;SDS011;58859;55.132;-1.586;2023-06-10T10:20:20;6.68;;;2.15;;
71164;SDS011;58859;55.132;-1.586;2023-06-10T10:22:55;5.95;;;2.58;;
71164;SDS011;58859;55.132;-1.586;2023-06-10T10:25:28;7.93;;;2.03;;
71164;SDS011;58859;55.132;-1.586;2023-06-10T10:28:12;7.05;;;2.58;;
71164;SDS011;58859;55.132;-1.586;2023-06-10T10:30:42;5.45;;;1.92;;
71164;SDS011;58859;55.132;-1.586;2023-06-10T10:36:06;7.30;;;2.45;;
71164;SDS011;58859;55.132;-1.586;2023-06-10T10:38:32;3.90;;;1.80;;
71164;SDS011;58859;55.132;-1.586;2023-06-10T10:40:59;5.38;;;2.33;;
71164;SDS011;58859;55.132;-1.586;2023-06-10T10:43:26;5.80;;;2.53;;
71164;SDS011;58859;55.132;-1.586;2023-06-10T10:45:59;5.45;;;2.38;;
71164;SDS011;58859;55.132;-1.586;2023-06-10T10:48:37;5.70;;;2.50;;
71164;SDS011;58859;55.132;-1.586;2023-06-10T10:51:03;5.13;;;1.90;;
71164;SDS011;58859;55.132;-1.586;2023-06-10T10:53:29;4.40;;;2.55;;
71164;SDS011;58859;55.132;-1.586;2023-06-10T10:56:09;5.32;;;2.53;;
71164;SDS011;58859;55.132;-1.586;2023-06-10T10:58:39;4.93;;;2.22;;
71164;SDS011;58859;55.132;-1.586;2023-06-10T11:01:13;4.90;;;2.30;;
71164;SDS011;58859;55.132;-1.586;2023-06-10T11:03:43;11.15;;;3.28;;
71164;SDS011;58859;55.132;-1.586;2023-06-10T11:06:13;5.95;;;2.50;;
71164;SDS011;58859;55.132;-1.586;2023-06-10T11:11:18;7.77;;;2.47;;
71164;SDS011;58859;55.132;-1.586;2023-06-10T11:16:57;5.03;;;2.53;;
71164;SDS011;58859;55.132;-1.586;2023-06-10T11:19:37;8.18;;;3.95;;
71164;SDS011;58859;55.132;-1.586;2023-06-10T11:22:15;3.35;;;2.10;;
71164;SDS011;58859;55.132;-1.586;2023-06-10T11:24:46;4.95;;;2.55;;
71164;SDS011;58859;55.132;-1.586;2023-06-10T11:27:22;5.57;;;2.20;;
71164;SDS011;58859;55.132;-1.586;2023-06-10T11:32:29;4.32;;;2.28;;
71164;SDS011;58859;55.132;-1.586;2023-06-10T11:34:58;6.22;;;2.47;;
71164;SDS011;58859;55.132;-1.586;2023-06-10T11:37:25;4.82;;;2.70;;
71164;SDS011;58859;55.132;-1.586;2023-06-10T11:39:56;6.67;;;2.30;;
71164;SDS011;58859;55.132;-1.586;2023-06-10T11:42:23;7.32;;;2.50;;
71164;SDS011;58859;55.132;-1.586;2023-06-10T11:44:52;2.90;;;1.83;;
71164;SDS011;58859;55.132;-1.586;2023-06-10T11:47:18;4.75;;;2.40;;
71164;SDS011;58859;55.132;-1.586;2023-06-10T11:49:45;7.93;;;2.83;;
71164;SDS011;58859;55.132;-1.586;2023-06-10T11:52:25;3.87;;;2.17;;
71164;SDS011;58859;55.132;-1.586;2023-06-10T11:54:53;7.50;;;2.50;;
71164;SDS011;58859;55.132;-1.586;2023-06-10T11:57:20;4.35;;;2.60;;
71164;SDS011;58859;55.132;-1.586;2023-06-10T11:59:45;5.20;;;2.40;;
71164;SDS011;58859;55.132;-1.586;2023-06-10T12:02:17;2.57;;;1.93;;
71164;SDS011;58859;55.132;-1.586;2023-06-10T12:04:44;6.63;;;2.80;;
71164;SDS011;58859;55.132;-1.586;2023-06-10T12:07:14;5.00;;;2.20;;
71164;SDS011;58859;55.132;-1.586;2023-06-10T12:09:42;7.63;;;2.20;;
71164;SDS011;58859;55.132;-1.586;2023-06-10T12:12:08;3.80;;;2.22;;
71164;SDS011;58859;55.132;-1.586;2023-06-10T12:14:54;8.17;;;2.60;;
71164;SDS011;58859;55.132;-1.586;2023-06-10T12:17:42;3.50;;;2.13;;
71164;SDS011;58859;55.132;-1.586;2023-06-10T12:20:08;5.65;;;2.50;;
71164;SDS011;58859;55.132;-1.586;2023-06-10T12:22:49;6.15;;;2.53;;
71164;SDS011;58859;55.132;-1.586;2023-06-10T12:25:14;5.63;;;2.37;;
71164;SDS011;58859;55.132;-1.586;2023-06-10T12:27:40;3.30;;;2.20;;
71164;SDS011;58859;55.132;-1.586;2023-06-10T12:30:18;5.55;;;2.60;;
71164;SDS011;58859;55.132;-1.586;2023-06-10T12:32:45;5.28;;;2.42;;
71164;SDS011;58859;55.132;-1.586;2023-06-10T12:35:15;5.72;;;2.67;;
71164;SDS011;58859;55.132;-1.586;2023-06-10T12:37:42;6.82;;;2.47;;
71164;SDS011;58859;55.132;-1.586;2023-06-10T12:40:25;4.63;;;2.43;;
71164;SDS011;58859;55.132;-1.586;2023-06-10T12:43:01;6.47;;;2.40;;
71164;SDS011;58859;55.132;-1.586;2023-06-10T12:45:28;3.85;;;2.20;;
71164;SDS011;58859;55.132;-1.586;2023-06-10T12:48:06;7.15;;;2.67;;
71164;SDS011;58859;55.132;-1.586;2023-06-10T12:50:42;4.47;;;3.08;;
71164;SDS011;58859;55.132;-1.586;2023-06-10T12:53:08;5.97;;;2.50;;
71164;SDS011;58859;55.132;-1.586;2023-06-10T12:55:36;5.47;;;2.72;;
71164;SDS011;58859;55.132;-1.586;2023-06-10T12:58:02;4.05;;;2.50;;
71164;SDS011;58859;55.132;-1.586;2023-06-10T13:00:29;5.15;;;2.72;;
71164;SDS011;58859;55.132;-1.586;2023-06-10T13:02:57;6.93;;;3.05;;
71164;SDS011;58859;55.132;-1.586;2023-06-10T13:05:26;9.60;;;2.93;;
71164;SDS011;58859;55.132;-1.586;2023-06-10T13:07:51;6.82;;;2.70;;
71164;SDS011;58859;55.132;-1.586;2023-06-10T13:10:17;7.47;;;2.43;;
71164;SDS011;58859;55.132;-1.586;2023-06-10T13:12:43;5.95;;;3.33;;
71164;SDS011;58859;55.132;-1.586;2023-06-10T13:15:09;7.07;;;2.53;;
71164;SDS011;58859;55.132;-1.586;2023-06-10T13:17:35;6.95;;;3.00;;
71164;SDS011;58859;55.132;-1.586;2023-06-10T13:20:02;8.47;;;3.00;;
71164;SDS011;58859;55.132;-1.586;2023-06-10T13:22:30;6.25;;;2.95;;
71164;SDS011;58859;55.132;-1.586;2023-06-10T13:24:57;9.50;;;3.35;;
71164;SDS011;58859;55.132;-1.586;2023-06-10T13:27:23;9.25;;;3.20;;
71164;SDS011;58859;55.132;-1.586;2023-06-10T13:29:48;6.93;;;2.90;;
71164;SDS011;58859;55.132;-1.586;2023-06-10T13:32:14;8.17;;;3.30;;
71164;SDS011;58859;55.132;-1.586;2023-06-10T13:34:39;7.70;;;3.40;;
71164;SDS011;58859;55.132;-1.586;2023-06-10T13:37:05;9.63;;;3.20;;
71164;SDS011;58859;55.132;-1.586;2023-06-10T13:39:31;11.30;;;2.83;;
71164;SDS011;58859;55.132;-1.586;2023-06-10T13:41:56;14.93;;;2.90;;
71164;SDS011;58859;55.132;-1.586;2023-06-10T13:44:21;8.05;;;3.08;;
71164;SDS011;58859;55.132;-1.586;2023-06-10T13:46:47;14.77;;;4.90;;
71164;SDS011;58859;55.132;-1.586;2023-06-10T13:49:12;11.03;;;3.23;;
71164;SDS011;58859;55.132;-1.586;2023-06-10T13:51:37;9.83;;;3.70;;
71164;SDS011;58859;55.132;-1.586;2023-06-10T13:54:03;7.93;;;3.40;;
71164;SDS011;58859;55.132;-1.586;2023-06-10T13:56:28;8.20;;;3.47;;
71164;SDS011;58859;55.132;-1.586;2023-06-10T13:58:53;6.80;;;3.30;;
71164;SDS011;58859;55.132;-1.586;2023-06-10T14:01:19;5.43;;;3.00;;
71164;SDS011;58859;55.132;-1.586;2023-06-10T14:03:45;7.83;;;3.40;;
71164;SDS011;58859;55.132;-1.586;2023-06-10T14:06:10;9.55;;;3.70;;
71164;SDS011;58859;55.132;-1.586;2023-06-10T14:08:38;9.53;;;3.77;;
71164;SDS011;58859;55.132;-1.586;2023-06-10T14:11:03;11.85;;;3.70;;
71164;SDS011;58859;55.132;-1.586;2023-06-10T14:13:28;9.63;;;3.13;;
71164;SDS011;58859;55.132;-1.586;2023-06-10T14:15:54;10.67;;;3.57;;
71164;SDS011;58859;55.132;-1.586;2023-06-10T14:18:20;6.38;;;2.85;;
71164;SDS011;58859;55.132;-1.586;2023-06-10T14:20:45;7.67;;;3.53;;
71164;SDS011;58859;55.132;-1.586;2023-06-10T14:23:11;8.27;;;3.60;;
71164;SDS011;58859;55.132;-1.586;2023-06-10T14:25:36;11.77;;;3.60;;
71164;SDS011;58859;55.132;-1.586;2023-06-10T14:28:02;10.57;;;3.40;;
71164;SDS011;58859;55.132;-1.586;2023-06-10T14:30:27;11.40;;;3.90;;
71164;SDS011;58859;55.132;-1.586;2023-06-10T14:32:53;11.37;;;4.03;;
71164;SDS011;58859;55.132;-1.586;2023-06-10T14:35:18;9.77;;;3.97;;
71164;SDS011;58859;55.132;-1.586;2023-06-10T14:37:43;12.03;;;4.40;;
71164;SDS011;58859;55.132;-1.586;2023-06-10T14:40:09;10.77;;;4.30;;
71164;SDS011;58859;55.132;-1.586;2023-06-10T14:42:35;12.73;;;3.55;;
71164;SDS011;58859;55.132;-1.586;2023-06-10T14:45:00;10.17;;;4.47;;
71164;SDS011;58859;55.132;-1.586;2023-06-10T14:47:26;13.90;;;4.03;;
71164;SDS011;58859;55.132;-1.586;2023-06-10T14:49:51;13.40;;;3.83;;
71164;SDS011;58859;55.132;-1.586;2023-06-10T14:52:16;10.67;;;4.57;;